createdAt,value
2018-09-27T00:00:35.756Z,102329.53
2018-09-27T00:05:28.332Z,102327.03
2018-09-27T00:10:20.941Z,102325.09
2018-09-27T00:15:13.491Z,102315.50
2018-09-27T00:20:06.252Z,102318.62
2018-09-27T00:24:58.808Z,102311.96
2018-09-27T00:29:51.396Z,102311.07
2018-09-27T00:34:44.014Z,102305.34
2018-09-27T00:39:36.546Z,102314.52
2018-09-27T00:44:29.148Z,102310.77
2018-09-27T00:49:21.888Z,102311.29
2018-09-27T00:54:14.547Z,102313.26
2018-09-27T00:59:07.199Z,102306.27
2018-09-27T01:03:59.878Z,102308.42
2018-09-27T01:08:53.079Z,102303.60
2018-09-27T01:13:45.653Z,102308.81
2018-09-27T01:18:38.169Z,102306.72
2018-09-27T01:23:30.722Z,102301.94
2018-09-27T01:28:23.363Z,102300.14
2018-09-27T01:33:15.949Z,102297.17
2018-09-27T01:38:08.538Z,102298.41
2018-09-27T01:43:01.145Z,102296.83
2018-09-27T01:47:53.723Z,102299.33
2018-09-27T01:52:46.483Z,102300.99
2018-09-27T01:57:39.053Z,102298.58
2018-09-27T02:02:31.689Z,102307.53
2018-09-27T02:07:24.254Z,102305.12
2018-09-27T02:12:16.835Z,102308.88
2018-09-27T02:17:09.425Z,102301.82
2018-09-27T02:22:02.049Z,102295.78
2018-09-27T02:26:54.597Z,102294.55
2018-09-27T02:31:48.170Z,102303.96
2018-09-27T02:36:40.754Z,102300.89
2018-09-27T02:41:33.388Z,102308.59
2018-09-27T02:46:26.016Z,102308.50
2018-09-27T02:51:18.608Z,102300.28
2018-09-27T02:56:11.240Z,102295.09
2018-09-27T03:01:03.864Z,102299.48
2018-09-27T03:05:56.651Z,102297.50
2018-09-27T03:10:49.295Z,102284.98
2018-09-27T03:15:41.867Z,102293.12
2018-09-27T03:20:34.402Z,102293.34
2018-09-27T03:25:27.015Z,102286.78
2018-09-27T03:30:19.566Z,102288.35
2018-09-27T03:35:12.131Z,102284.06
2018-09-27T03:40:04.760Z,102277.59
2018-09-27T03:44:57.410Z,102283.02
2018-09-27T03:49:49.987Z,102284.98
2018-09-27T03:54:42.568Z,102284.98
2018-09-27T03:59:35.295Z,102279.88
2018-09-27T04:04:28.007Z,102274.97
2018-09-27T04:09:20.575Z,102287.39
2018-09-27T04:14:13.174Z,102284.46
2018-09-27T04:19:05.735Z,102286.34
2018-09-27T04:23:58.477Z,102283.94
2018-09-27T04:28:51.180Z,102291.03
2018-09-27T04:33:43.898Z,102282.37
2018-09-27T04:38:36.399Z,102277.22
2018-09-27T04:43:29.135Z,102275.80
2018-09-27T04:48:21.689Z,102279.03
2018-09-27T04:53:14.267Z,102289.06
2018-09-27T04:58:06.835Z,102291.25
2018-09-27T05:02:59.534Z,102287.48
2018-09-27T05:07:52.145Z,102288.01
2018-09-27T05:12:44.759Z,102284.46
2018-09-27T05:17:37.348Z,102285.30
2018-09-27T05:22:29.877Z,102299.17
2018-09-27T05:27:22.601Z,102298.64
2018-09-27T05:32:15.148Z,102297.34
2018-09-27T05:37:07.880Z,102294.94
2018-09-27T05:42:00.435Z,102298.80
2018-09-27T05:46:53.019Z,102301.51
2018-09-27T05:51:45.575Z,102300.23
2018-09-27T05:56:38.174Z,102300.05
2018-09-27T06:01:30.783Z,102295.98
2018-09-27T06:06:23.476Z,102301.94
2018-09-27T06:11:16.061Z,102308.81
2018-09-27T06:16:08.570Z,102306.37
2018-09-27T06:21:01.344Z,102313.71
2018-09-27T06:25:54.105Z,102312.11
2018-09-27T06:30:46.684Z,102313.77
2018-09-27T06:35:39.286Z,102321.39
2018-09-27T06:40:31.846Z,102319.28
2018-09-27T06:45:24.420Z,102326.47
2018-09-27T06:50:17.012Z,102330.59
2018-09-27T06:55:09.717Z,102331.21
2018-09-27T07:00:02.061Z,102337.03
2018-09-27T07:04:54.587Z,102330.64
2018-09-27T07:09:47.272Z,102333.41
2018-09-27T07:14:39.990Z,102336.52
2018-09-27T07:19:32.483Z,102339.11
2018-09-27T07:24:25.122Z,102335.92
2018-09-27T07:29:17.800Z,102334.44
2018-09-27T07:34:10.429Z,102336.19
2018-09-27T07:39:04.290Z,102341.45
2018-09-27T07:43:56.955Z,102342.37
2018-09-27T07:53:21.504Z,102336.50
2018-09-27T07:58:14.099Z,102334.30
2018-09-27T08:03:06.896Z,102335.73
2018-09-27T08:07:59.443Z,102330.16
2018-09-27T08:12:52.110Z,102321.02
2018-09-27T08:17:44.933Z,102319.91
2018-09-27T08:22:37.652Z,102320.78
2018-09-27T08:27:30.616Z,102320.28
2018-09-27T08:32:23.430Z,102314.16
2018-09-27T08:37:16.090Z,102311.17
2018-09-27T08:42:08.900Z,102307.27
2018-09-27T08:47:01.626Z,102303.34
2018-09-27T08:51:54.277Z,102305.09
2018-09-27T08:56:46.813Z,102310.30
2018-09-27T09:01:39.594Z,102305.58
2018-09-27T09:06:32.206Z,102299.95
2018-09-27T09:11:24.840Z,102298.93
2018-09-27T09:16:17.486Z,102293.86
2018-09-27T09:21:10.395Z,102287.55
2018-09-27T09:26:03.065Z,102286.07
2018-09-27T09:30:55.755Z,102271.58
2018-09-27T09:35:48.602Z,102269.09
2018-09-27T09:40:41.259Z,102280.33
2018-09-27T09:45:33.952Z,102269.91
2018-09-27T09:50:26.634Z,102265.16
2018-09-27T09:55:19.314Z,102270.00
2018-09-27T10:00:12.053Z,102261.09
2018-09-27T10:05:04.751Z,102262.00
2018-09-27T10:09:57.608Z,102251.63
2018-09-27T10:14:50.256Z,102255.25
2018-09-27T10:19:42.874Z,102252.25
2018-09-27T10:24:35.520Z,102248.95
2018-09-27T10:29:28.215Z,102238.26
2018-09-27T10:34:20.913Z,102225.86
2018-09-27T10:39:13.519Z,102228.63
2018-09-27T10:44:06.279Z,102229.73
2018-09-27T10:48:58.938Z,102223.98
2018-09-27T10:53:51.551Z,102213.26
2018-09-27T10:58:44.199Z,102215.45
2018-09-27T11:03:36.971Z,102209.66
2018-09-27T11:08:29.639Z,102201.86
2018-09-27T11:13:22.324Z,102192.41
2018-09-27T11:18:14.950Z,102191.55
2018-09-27T11:23:07.603Z,102189.25
2018-09-27T11:28:00.198Z,102185.49
2018-09-27T11:32:52.896Z,102171.55
2018-09-27T11:37:45.489Z,102161.03
2018-09-27T11:42:38.716Z,102162.05
2018-09-27T11:47:31.395Z,102153.72
2018-09-27T11:52:24.059Z,102144.77
2018-09-27T11:57:16.647Z,102138.18
2018-09-27T12:02:09.372Z,102132.55
2018-09-27T12:12:08.689Z,102114.02
2018-09-27T12:17:01.450Z,102114.78
2018-09-27T12:21:54.123Z,102106.45
2018-09-27T12:26:46.880Z,102095.73
2018-09-27T12:31:39.571Z,102092.20
2018-09-27T12:36:32.185Z,102082.23
2018-09-27T12:41:24.830Z,102075.69
2018-09-27T12:46:17.407Z,102057.22
2018-09-27T12:51:10.172Z,102058.54
2018-09-27T12:56:02.793Z,102051.75
2018-09-27T13:00:55.390Z,102047.73
2018-09-27T13:05:48.130Z,102037.93
2018-09-27T13:10:40.911Z,102027.57
2018-09-27T13:15:33.552Z,102028.45
2018-09-27T13:20:26.309Z,102014.23
2018-09-27T13:25:18.947Z,102009.56
2018-09-27T13:30:11.764Z,101999.33
2018-09-27T13:35:04.507Z,101996.45
2018-09-27T13:39:57.281Z,101978.96
2018-09-27T13:44:49.952Z,101973.94
2018-09-27T13:49:42.664Z,101964.61
2018-09-27T13:54:35.250Z,101952.30
2018-09-27T13:59:27.907Z,101953.28
2018-09-27T14:04:20.534Z,101938.28
2018-09-27T14:09:13.272Z,101940.25
2018-09-27T14:14:06.468Z,101932.83
2018-09-27T14:18:59.103Z,101920.32
2018-09-27T14:23:51.708Z,101909.13
2018-09-27T14:28:44.311Z,101910.73
2018-09-27T14:33:37.016Z,101895.80
2018-09-27T14:38:29.609Z,101892.92
2018-09-27T14:43:22.267Z,101875.86
2018-09-27T14:48:15.515Z,101867.45
2018-09-27T14:53:08.286Z,101865.58
2018-09-27T14:58:00.967Z,101854.69
2018-09-27T15:02:53.567Z,101860.09
2018-09-27T15:07:46.199Z,101849.23
2018-09-27T15:12:38.886Z,101834.27
2018-09-27T15:17:31.485Z,101831.08
2018-09-27T15:22:24.169Z,101827.52
2018-09-27T15:27:16.791Z,101820.78
2018-09-27T15:32:09.459Z,101816.59
2018-09-27T15:37:02.095Z,101812.26
2018-09-27T15:41:54.728Z,101809.89
2018-09-27T15:46:47.420Z,101803.16
2018-09-27T15:51:40.025Z,101790.99
2018-09-27T15:56:32.668Z,101786.95
2018-09-27T16:01:25.415Z,101779.73
2018-09-27T16:06:18.053Z,101773.88
2018-09-27T16:11:10.686Z,101766.06
2018-09-27T16:16:03.298Z,101767.87
2018-09-27T16:20:55.920Z,101769.13
2018-09-27T16:25:48.823Z,101768.41
2018-09-27T16:30:41.468Z,101752.55
2018-09-27T16:35:34.206Z,101748.24
2018-09-27T16:40:26.843Z,101741.73
2018-09-27T16:45:19.464Z,101734.41
2018-09-27T16:50:12.312Z,101738.61
2018-09-27T16:55:05.095Z,101737.28
2018-09-27T16:59:57.760Z,101734.33
2018-09-27T17:04:50.453Z,101729.19
2018-09-27T17:09:43.118Z,101716.36
2018-09-27T17:14:35.698Z,101709.27
2018-09-27T17:19:28.431Z,101709.03
2018-09-27T17:24:21.278Z,101705.80
2018-09-27T17:29:13.915Z,101712.14
2018-09-27T17:34:07.110Z,101700.98
2018-09-27T17:38:59.644Z,101697.72
2018-09-27T17:43:52.288Z,101696.67
2018-09-27T17:48:44.921Z,101694.26
2018-09-27T17:53:37.887Z,101691.81
2018-09-27T17:58:30.562Z,101692.67
2018-09-27T18:03:23.271Z,101691.07
2018-09-27T18:08:15.956Z,101689.16
2018-09-27T18:13:08.650Z,101689.98
2018-09-27T18:18:01.375Z,101682.32
2018-09-27T18:22:53.983Z,101679.89
2018-09-27T18:27:46.619Z,101674.45
2018-09-27T18:32:39.253Z,101679.96
2018-09-27T18:37:32.010Z,101674.75
2018-09-27T18:42:24.663Z,101665.98
2018-09-27T18:47:17.305Z,101668.48
2018-09-27T18:52:09.976Z,101654.26
2018-09-27T18:57:02.602Z,101650.72
2018-09-27T19:01:55.190Z,101649.64
2018-09-27T19:06:47.762Z,101651.53
2018-09-27T19:11:40.517Z,101645.80
2018-09-27T19:16:33.125Z,101649.38
2018-09-27T19:21:25.828Z,101636.77
2018-09-27T19:26:18.523Z,101629.94
2018-09-27T19:31:11.145Z,101625.82
2018-09-27T19:36:03.785Z,101622.83
2018-09-27T19:40:56.353Z,101617.61
2018-09-27T19:45:48.925Z,101609.69
2018-09-27T19:50:41.586Z,101606.95
2018-09-27T19:55:34.171Z,101609.36
2018-09-27T20:00:26.709Z,101604.42
2018-09-27T20:05:19.460Z,101596.76
2018-09-27T20:10:12.224Z,101598.66
2018-09-27T20:15:04.877Z,101587.98
2018-09-27T20:19:57.482Z,101584.67
2018-09-27T20:24:50.094Z,101574.01
2018-09-27T20:29:42.785Z,101573.99
2018-09-27T20:34:35.520Z,101569.86
2018-09-27T20:39:31.289Z,101556.75
2018-09-27T20:44:24.682Z,101552.08
2018-09-27T20:49:17.925Z,101547.41
2018-09-27T20:54:10.643Z,101544.94
2018-09-27T20:59:03.306Z,101542.73
2018-09-27T21:03:55.932Z,101539.42
2018-09-27T21:08:48.607Z,101535.33
2018-09-27T21:13:41.364Z,101533.97
2018-09-27T21:18:34.029Z,101525.81
2018-09-27T21:23:27.066Z,101524.45
2018-09-27T21:28:19.645Z,101518.41
2018-09-27T21:33:12.351Z,101509.89
2018-09-27T21:38:04.931Z,101500.59
2018-09-27T21:42:57.627Z,101492.91
2018-09-27T21:47:50.275Z,101481.67
2018-09-27T21:52:43.005Z,101478.66
2018-09-27T21:57:35.749Z,101468.80
2018-09-27T22:02:28.614Z,101457.27
2018-09-27T22:07:21.265Z,101452.55
2018-09-27T22:12:13.944Z,101443.97
2018-09-27T22:17:06.665Z,101446.61
2018-09-27T22:21:59.319Z,101447.36
2018-09-27T22:26:51.970Z,101436.92
2018-09-27T22:31:44.544Z,101438.23
2018-09-27T22:36:37.137Z,101436.82
2018-09-27T22:41:29.731Z,101433.53
2018-09-27T22:46:22.397Z,101421.22
2018-09-27T22:51:15.127Z,101420.03
2018-09-27T22:56:07.773Z,101412.31
2018-09-27T23:01:00.439Z,101404.59
2018-09-27T23:05:53.151Z,101402.85
2018-09-27T23:10:45.809Z,101398.42
2018-09-27T23:15:38.575Z,101393.58
2018-09-27T23:20:31.311Z,101384.81
2018-09-27T23:25:24.008Z,101377.09
2018-09-27T23:30:16.636Z,101383.03
2018-09-27T23:35:09.234Z,101382.27
2018-09-27T23:40:01.952Z,101385.53
2018-09-27T23:44:54.627Z,101387.14
2018-09-27T23:49:47.484Z,101384.64
2018-09-27T23:54:40.116Z,101382.89
2018-09-27T23:59:32.684Z,101387.11
